TimeEST,TemperatureF,Dew PointF,Humidity,Sea Level PressureIn,VisibilityMPH,Wind Direction,Wind SpeedMPH,Gust SpeedMPH,PrecipitationIn,Events,Conditions,WindDirDegrees,DateUTC
12:54 AM,53.1,44.1,71,30.16,10.0,North,9.2,-,N/A,,Overcast,10,2012-12-12 05:54:00
1:54 AM,53.1,42.1,66,30.18,10.0,NNE,12.7,-,N/A,,Overcast,30,2012-12-12 06:54:00
2:54 AM,51.1,43.0,74,30.20,6.0,NNE,11.5,-,0.02,Rain,Light Rain,20,2012-12-12 07:54:00
3:54 AM,51.1,44.1,77,30.20,10.0,NNE,12.7,-,0.01,,Overcast,20,2012-12-12 08:54:00
4:54 AM,51.1,44.1,77,30.21,10.0,NNE,16.1,-,0.00,,Overcast,30,2012-12-12 09:54:00
5:54 AM,51.1,43.0,74,30.23,10.0,NNE,18.4,24.2,0.00,,Overcast,30,2012-12-12 10:54:00
6:54 AM,50.0,44.1,80,30.25,5.0,North,11.5,21.9,0.01,Rain,Light Rain,10,2012-12-12 11:54:00
7:16 AM,48.2,44.6,87,30.25,4.0,NNE,15.0,-,0.03,Rain,Light Rain,20,2012-12-12 12:16:00
7:40 AM,48.2,44.6,87,30.26,8.0,North,15.0,-,0.04,Rain,Light Rain,360,2012-12-12 12:40:00
7:54 AM,48.0,44.1,86,30.26,6.0,North,12.7,-,0.05,Rain,Light Rain,10,2012-12-12 12:54:00
8:54 AM,48.9,44.1,83,30.28,10.0,North,15.0,-,0.00,Rain,Light Rain,10,2012-12-12 13:54:00
9:54 AM,48.9,44.1,83,30.29,10.0,NNE,16.1,-,0.04,,Overcast,20,2012-12-12 14:54:00
10:10 AM,48.2,44.6,87,30.30,10.0,NNE,17.3,23.0,0.00,Rain,Light Rain,30,2012-12-12 15:10:00
10:54 AM,50.0,44.1,80,30.32,10.0,NNE,13.8,-,0.00,Rain,Light Rain,20,2012-12-12 15:54:00
11:02 AM,50.0,44.6,82,30.32,10.0,North,15.0,-,0.00,,Overcast,360,2012-12-12 16:02:00
11:20 AM,50.0,42.8,76,30.30,10.0,NNE,17.3,-,0.00,,Overcast,20,2012-12-12 16:20:00
11:54 AM,50.0,43.0,77,30.28,8.0,NNE,18.4,-,0.00,Rain,Light Rain,30,2012-12-12 16:54:00
12:11 PM,48.2,44.6,87,30.30,10.0,North,15.0,-,0.00,,Overcast,360,2012-12-12 17:11:00
12:36 PM,50.0,44.6,82,30.28,10.0,NNE,17.3,-,0.00,Rain,Light Rain,20,2012-12-12 17:36:00
12:44 PM,50.0,44.6,82,30.28,10.0,North,16.1,24.2,0.00,Rain,Light Rain,10,2012-12-12 17:44:00
12:54 PM,50.0,45.0,83,30.28,10.0,NNE,11.5,19.6,0.00,,Overcast,20,2012-12-12 17:54:00
1:54 PM,50.0,41.0,71,30.27,10.0,NNE,18.4,25.3,N/A,,Overcast,20,2012-12-12 18:54:00
2:54 PM,50.0,39.9,68,30.26,10.0,NNE,18.4,24.2,0.00,Rain,Light Rain,30,2012-12-12 19:54:00
3:54 PM,50.0,39.9,68,30.27,10.0,NNE,19.6,28.8,0.00,,Overcast,20,2012-12-12 20:54:00
4:54 PM,50.0,39.0,66,30.28,10.0,North,15.0,23.0,N/A,,Overcast,10,2012-12-12 21:54:00
5:54 PM,50.0,39.0,66,30.30,10.0,NNE,18.4,25.3,N/A,,Overcast,20,2012-12-12 22:54:00
6:54 PM,50.0,41.0,71,30.31,10.0,North,12.7,21.9,N/A,,Overcast,10,2012-12-12 23:54:00
7:54 PM,50.0,42.1,74,30.29,10.0,NNE,15.0,23.0,0.00,,Overcast,30,2012-12-13 00:54:00
8:54 PM,50.0,42.1,74,30.29,10.0,NNE,16.1,-,0.00,Rain,Light Rain,30,2012-12-13 01:54:00
9:54 PM,50.0,42.1,74,30.30,10.0,NNE,18.4,25.3,0.00,Rain,Light Rain,20,2012-12-13 02:54:00
10:50 PM,48.2,42.8,82,30.26,10.0,NNE,20.7,-,0.01,Rain,Light Rain,30,2012-12-13 03:50:00
10:54 PM,48.9,41.0,74,30.27,10.0,NNE,18.4,-,0.01,Rain,Light Rain,20,2012-12-13 03:54:00
11:54 PM,48.9,42.1,77,30.27,9.0,NNE,19.6,24.2,0.01,Rain,Light Rain,20,2012-12-13 04:54:00